Time;durP1;ratioP1;P1;durP2;ratioP2;P2;SDS_P1;SDS_P2;PMS_P1;PMS_P2;Temp;Humidity;BMP_temperature;BMP_pressure;BME280_temperature;BME280_humidity;BME280_pressure;Samples;Min_cycle;Max_cycle;Signal;HPM_P1;HPM_P2
2022/05/06 00:02:15;;;;;;;45.97;23.65;;;11.50;99.90;;;;;;5068421;27;37491;-78
2022/05/06 00:04:44;;;;;;;47.20;24.02;;;11.40;99.90;;;;;;5062669;27;39563;-77
2022/05/06 00:07:12;;;;;;;58.55;27.05;;;11.40;99.90;;;;;;5063612;28;39066;-78
2022/05/06 00:09:39;;;;;;;48.40;25.30;;;11.40;99.90;;;;;;5069141;28;38052;-77
2022/05/06 00:12:06;;;;;;;56.40;27.23;;;11.40;99.90;;;;;;5066326;27;38041;-78
2022/05/06 00:14:34;;;;;;;48.53;23.23;;;11.40;99.90;;;;;;5060622;28;39972;-77
2022/05/06 00:17:05;;;;;;;54.25;25.67;;;11.40;99.90;;;;;;5060935;28;39065;-77
2022/05/06 00:19:31;;;;;;;54.60;25.83;;;11.40;99.90;;;;;;5060654;28;49551;-76
2022/05/06 00:21:57;;;;;;;49.95;23.80;;;11.40;99.90;;;;;;5063447;28;37503;-77
2022/05/06 00:24:23;;;;;;;48.65;23.92;;;11.40;99.90;;;;;;5067919;28;40296;-77
2022/05/06 00:26:49;;;;;;;48.53;22.50;;;11.30;99.90;;;;;;5088447;27;39122;-77
2022/05/06 00:29:16;;;;;;;53.55;25.27;;;11.30;99.90;;;;;;5064545;27;38465;-77
2022/05/06 00:31:42;;;;;;;54.70;24.67;;;11.30;99.90;;;;;;5056371;28;39270;-77
2022/05/06 00:34:09;;;;;;;60.15;24.63;;;11.40;99.90;;;;;;5070018;28;40188;-77
2022/05/06 00:36:36;;;;;;;57.08;26.42;;;11.40;99.90;;;;;;5076699;28;39202;-77
2022/05/06 00:39:02;;;;;;;53.47;24.45;;;11.40;99.90;;;;;;5071765;28;38202;-78
2022/05/06 00:41:32;;;;;;;57.60;27.40;;;11.40;99.90;;;;;;5071796;28;39291;-77
2022/05/06 00:43:58;;;;;;;53.90;24.17;;;11.40;99.90;;;;;;5067990;28;39703;-77
2022/05/06 00:46:25;;;;;;;69.05;28.10;;;11.40;99.90;;;;;;5064720;28;37166;-77
2022/05/06 00:48:51;;;;;;;64.18;27.08;;;11.40;99.90;;;;;;5064435;28;39137;-77
2022/05/06 00:51:20;;;;;;;60.67;28.27;;;11.30;99.90;;;;;;5071004;28;37444;-77
2022/05/06 00:53:47;;;;;;;60.25;27.77;;;11.20;99.90;;;;;;5081787;28;39393;-77
2022/05/06 00:56:17;;;;;;;62.60;26.27;;;11.20;99.90;;;;;;5071615;28;37430;-77
2022/05/06 00:58:44;;;;;;;73.13;30.40;;;11.30;99.90;;;;;;5061237;28;38210;-77
2022/05/06 01:01:10;;;;;;;68.40;29.33;;;11.30;99.90;;;;;;5067034;27;38001;-77
2022/05/06 01:03:37;;;;;;;69.32;29.45;;;11.30;99.90;;;;;;5066221;27;39564;-77
2022/05/06 01:06:07;;;;;;;76.72;30.77;;;11.40;99.90;;;;;;5079515;27;37317;-77
2022/05/06 01:08:34;;;;;;;72.90;30.63;;;11.40;99.90;;;;;;5065866;28;38014;-77
2022/05/06 01:11:01;;;;;;;61.70;28.95;;;11.40;99.90;;;;;;5063874;28;38946;-77
2022/05/06 01:13:28;;;;;;;77.13;33.05;;;11.40;99.90;;;;;;5061034;28;47401;-77
2022/05/06 01:15:56;;;;;;;79.38;34.00;;;11.40;99.90;;;;;;5058452;27;38289;-77
2022/05/06 01:18:22;;;;;;;61.80;32.47;;;11.50;99.90;;;;;;5061236;28;38596;-77
2022/05/06 01:20:51;;;;;;;71.68;35.17;;;11.50;99.90;;;;;;5055831;28;39041;-76
2022/05/06 01:23:19;;;;;;;63.45;32.95;;;11.40;99.90;;;;;;5057258;28;39597;-77
2022/05/06 01:25:46;;;;;;;61.45;32.83;;;11.50;99.90;;;;;;5061621;28;38059;-76
2022/05/06 01:28:14;;;;;;;69.07;34.40;;;11.50;99.90;;;;;;5065507;27;37953;-77
2022/05/06 01:30:42;;;;;;;59.92;32.92;;;11.50;99.90;;;;;;5066820;28;38181;-77
2022/05/06 01:33:11;;;;;;;70.15;36.95;;;11.50;99.90;;;;;;5074880;27;38682;-77
2022/05/06 01:35:47;;;;;;;69.55;37.20;;;11.50;99.90;;;;;;5074582;28;37081;-77
2022/05/06 01:38:36;;;;;;;60.70;33.53;;;11.50;99.90;;;;;;5071159;28;37950;-77
2022/05/06 01:41:05;;;;;;;64.50;33.50;;;11.40;99.90;;;;;;5055750;28;38518;-76
2022/05/06 01:43:38;;;;;;;58.35;32.47;;;11.50;99.90;;;;;;5065426;28;39957;-77
2022/05/06 01:46:06;;;;;;;67.75;35.58;;;11.50;99.90;;;;;;5046426;28;37683;-77
2022/05/06 01:48:34;;;;;;;59.00;31.70;;;11.40;99.90;;;;;;5062470;28;39769;-77
2022/05/06 01:51:02;;;;;;;59.80;31.77;;;11.50;99.90;;;;;;5064307;28;38384;-77
2022/05/06 01:53:28;;;;;;;62.13;32.28;;;11.50;99.90;;;;;;5062738;28;49083;-77
2022/05/06 01:55:54;;;;;;;59.47;32.03;;;11.50;99.90;;;;;;5073225;28;38761;-77
2022/05/06 01:58:21;;;;;;;55.38;30.98;;;11.50;99.90;;;;;;5070540;27;38807;-77
2022/05/06 02:00:47;;;;;;;55.30;30.83;;;11.50;99.90;;;;;;5067955;28;37361;-77
2022/05/06 02:05:57;;;;;;;61.72;32.88;;;11.60;99.90;;;;;;5066174;28;38784;-77
2022/05/06 02:08:23;;;;;;;60.13;31.30;;;11.50;99.90;;;;;;5073650;28;38616;-77
2022/05/06 02:10:50;;;;;;;71.13;35.50;;;11.60;99.90;;;;;;5068659;28;38333;-77
2022/05/06 02:13:16;;;;;;;67.53;34.78;;;11.60;99.90;;;;;;5072610;27;38905;-77
2022/05/06 02:15:42;;;;;;;79.55;38.75;;;11.60;99.90;;;;;;5059860;28;39955;-77
2022/05/06 02:18:09;;;;;;;68.00;36.60;;;11.50;99.90;;;;;;5068812;27;38732;-76
2022/05/06 02:20:36;;;;;;;68.68;34.72;;;11.50;99.90;;;;;;5076378;27;37321;-77
2022/05/06 02:23:03;;;;;;;69.90;35.20;;;11.50;99.90;;;;;;5077354;27;39619;-77
2022/05/06 02:25:30;;;;;;;82.10;39.72;;;11.60;99.90;;;;;;5074867;27;38061;-77
2022/05/06 02:27:56;;;;;;;78.68;37.65;;;11.60;99.90;;;;;;5073541;28;38930;-77
2022/05/06 02:33:13;;;;;;;80.25;37.33;;;11.50;99.90;;;;;;5073794;28;39764;-77
2022/05/06 02:35:43;;;;;;;75.60;36.92;;;11.50;99.90;;;;;;5075478;27;38824;-77
2022/05/06 02:38:11;;;;;;;82.55;38.63;;;11.50;99.90;;;;;;5069720;27;40658;-77
2022/05/06 02:40:38;;;;;;;73.57;36.45;;;11.50;99.90;;;;;;5072927;28;36486;-77
2022/05/06 02:43:05;;;;;;;79.15;37.42;;;11.50;99.90;;;;;;5078340;28;38318;-76
2022/05/06 02:45:32;;;;;;;72.10;35.03;;;11.50;99.90;;;;;;5072498;28;39719;-77
2022/05/06 02:47:59;;;;;;;67.68;32.85;;;11.60;99.90;;;;;;5065892;28;38402;-76
2022/05/06 02:50:26;;;;;;;67.47;31.25;;;11.50;99.90;;;;;;5082311;28;39001;-77
2022/05/06 02:52:52;;;;;;;80.78;31.95;;;11.40;99.90;;;;;;5074861;28;39043;-77
2022/05/06 02:55:19;;;;;;;59.40;27.83;;;11.30;99.90;;;;;;5071423;27;37966;-76
2022/05/06 02:57:45;;;;;;;64.25;29.58;;;11.20;99.90;;;;;;5070297;28;38144;-76
2022/05/06 03:00:12;;;;;;;59.92;28.33;;;11.20;99.90;;;;;;5073356;28;37490;-77
2022/05/06 03:02:39;;;;;;;67.18;28.38;;;11.30;99.90;;;;;;5070418;27;39415;-76
2022/05/06 03:05:09;;;;;;;60.58;27.58;;;11.20;99.90;;;;;;5065748;28;40181;-77
2022/05/06 03:07:35;;;;;;;65.38;28.48;;;11.10;99.90;;;;;;5068258;28;37067;-76
2022/05/06 03:10:02;;;;;;;75.22;31.17;;;11.10;99.90;;;;;;5070447;28;37780;-77
2022/05/06 03:12:30;;;;;;;73.72;32.42;;;11.10;99.90;;;;;;5078322;28;46930;-77
2022/05/06 03:15:03;;;;;;;63.10;29.48;;;11.10;99.90;;;;;;5071494;27;37224;-77
2022/05/06 03:17:31;;;;;;;65.82;30.30;;;11.10;99.90;;;;;;5074617;28;47497;-76
2022/05/06 03:19:58;;;;;;;69.30;31.13;;;11.10;99.90;;;;;;5077209;27;38085;-76
2022/05/06 03:22:24;;;;;;;68.05;29.70;;;11.10;99.90;;;;;;5074567;28;37821;-77
2022/05/06 03:24:50;;;;;;;69.65;29.70;;;11.10;99.90;;;;;;5077803;28;39400;-76
2022/05/06 03:30:02;;;;;;;54.80;26.98;;;11.00;99.90;;;;;;5075740;27;36885;-77
2022/05/06 03:32:29;;;;;;;59.15;27.50;;;11.00;99.90;;;;;;5080869;27;38526;-77
2022/05/06 03:34:55;;;;;;;50.13;25.92;;;11.00;99.90;;;;;;5074232;28;38451;-77
2022/05/06 03:37:21;;;;;;;50.38;24.13;;;10.90;99.90;;;;;;5077487;28;37013;-77
2022/05/06 03:39:48;;;;;;;45.15;24.25;;;10.90;99.90;;;;;;5075366;27;36500;-77
2022/05/06 03:42:14;;;;;;;49.55;24.85;;;10.80;99.90;;;;;;5078768;28;36647;-77
2022/05/06 03:44:40;;;;;;;56.97;27.77;;;10.80;99.90;;;;;;5079430;28;38313;-76
2022/05/06 03:47:07;;;;;;;61.53;28.67;;;10.80;99.90;;;;;;5072549;28;39170;-77
2022/05/06 03:49:33;;;;;;;59.55;30.15;;;10.80;99.90;;;;;;5074660;28;38065;-77
2022/05/06 03:51:59;;;;;;;67.55;31.42;;;10.90;99.90;;;;;;5074212;28;37414;-77
2022/05/06 03:54:26;;;;;;;79.47;35.58;;;10.80;99.90;;;;;;5074364;28;39567;-76
2022/05/06 03:56:53;;;;;;;78.13;35.45;;;10.80;99.90;;;;;;5077440;27;39108;-77
2022/05/06 03:59:19;;;;;;;73.72;34.30;;;10.80;99.90;;;;;;5074603;28;39881;-77
2022/05/06 04:01:45;;;;;;;65.07;33.13;;;10.80;99.90;;;;;;5074051;27;39428;-77
2022/05/06 04:04:11;;;;;;;64.90;32.80;;;10.80;99.90;;;;;;5075117;28;39095;-77
2022/05/06 04:06:37;;;;;;;67.88;33.05;;;10.80;99.90;;;;;;5075793;28;39206;-77
2022/05/06 04:09:03;;;;;;;67.88;32.83;;;10.60;99.90;;;;;;5080883;27;37909;-76
2022/05/06 04:11:30;;;;;;;57.45;29.13;;;10.60;99.90;;;;;;5074268;28;40531;-76
2022/05/06 04:13:56;;;;;;;64.13;31.75;;;10.70;99.90;;;;;;5073721;28;38431;-76
2022/05/06 04:16:24;;;;;;;62.97;29.52;;;10.70;99.90;;;;;;5063579;27;38109;-77
2022/05/06 04:18:50;;;;;;;60.00;29.67;;;10.70;99.90;;;;;;5076672;27;37660;-77
2022/05/06 04:24:01;;;;;;;56.85;28.95;;;10.70;99.90;;;;;;5075234;27;39441;-76
2022/05/06 04:26:27;;;;;;;74.60;31.60;;;10.70;99.90;;;;;;5069731;28;47478;-77
2022/05/06 04:28:53;;;;;;;58.88;29.88;;;10.60;99.90;;;;;;5073116;27;37562;-76
2022/05/06 04:31:19;;;;;;;54.70;27.88;;;10.60;99.90;;;;;;5070380;27;39531;-77
2022/05/06 04:33:45;;;;;;;85.75;27.92;;;10.60;99.90;;;;;;5069501;28;40203;-76
2022/05/06 04:36:11;;;;;;;44.28;25.58;;;10.50;99.90;;;;;;5065875;28;38271;-76
2022/05/06 04:38:39;;;;;;;47.70;25.73;;;10.40;99.90;;;;;;5071255;28;20610;-76
2022/05/06 04:41:05;;;;;;;36.05;22.48;;;10.40;99.90;;;;;;5073414;28;39482;-77
2022/05/06 04:43:32;;;;;;;40.83;23.10;;;10.20;99.90;;;;;;5071777;27;38445;-77
2022/05/06 04:45:58;;;;;;;33.13;20.02;;;10.20;99.90;;;;;;5071486;28;39823;-76
2022/05/06 04:48:25;;;;;;;27.45;18.55;;;10.30;99.90;;;;;;5074872;28;37931;-77
2022/05/06 04:50:51;;;;;;;24.67;17.98;;;10.30;99.90;;;;;;5065367;28;38785;-76
2022/05/06 04:53:20;;;;;;;36.15;18.92;;;10.40;99.90;;;;;;5064789;28;38510;-76
2022/05/06 04:55:49;;;;;;;25.02;18.50;;;10.40;99.90;;;;;;5064876;28;38555;-76
2022/05/06 04:58:16;;;;;;;20.65;16.90;;;10.40;99.90;;;;;;5080818;27;37672;-76
2022/05/06 05:00:43;;;;;;;22.67;16.83;;;10.50;99.90;;;;;;5065538;27;38661;-77
2022/05/06 05:03:09;;;;;;;23.42;16.95;;;10.40;99.90;;;;;;5066439;28;37088;-77
2022/05/06 05:05:35;;;;;;;21.30;15.40;;;10.20;99.90;;;;;;5063665;28;38095;-76
2022/05/06 05:08:02;;;;;;;18.13;14.48;;;10.10;99.90;;;;;;5064633;28;38340;-76
2022/05/06 05:10:28;;;;;;;15.93;13.25;;;10.20;99.90;;;;;;5065965;28;40843;-76
2022/05/06 05:12:54;;;;;;;18.63;15.18;;;10.10;99.90;;;;;;5065963;28;37807;-76
2022/05/06 05:15:20;;;;;;;19.20;13.60;;;10.20;99.90;;;;;;5058643;28;38082;-76
2022/05/06 05:17:47;;;;;;;15.07;11.60;;;10.20;99.90;;;;;;5058272;28;39528;-76
2022/05/06 05:20:14;;;;;;;11.50;10.30;;;10.10;99.90;;;;;;5061272;28;39985;-76
2022/05/06 05:22:41;;;;;;;12.00;9.75;;;10.00;99.90;;;;;;5068673;27;39475;-77
2022/05/06 05:25:12;;;;;;;23.63;13.52;;;10.10;99.90;;;;;;5058217;28;38765;-77
2022/05/06 05:27:41;;;;;;;27.27;12.20;;;10.10;99.90;;;;;;5069542;28;36568;-77
2022/05/06 05:30:09;;;;;;;15.60;12.27;;;10.20;99.90;;;;;;5077745;27;38000;-77
2022/05/06 05:32:35;;;;;;;11.57;10.40;;;10.30;99.90;;;;;;5072760;28;39450;-76
2022/05/06 05:35:02;;;;;;;15.65;9.98;;;10.40;99.90;;;;;;5070828;28;39108;-76
2022/05/06 05:37:30;;;;;;;13.80;9.95;;;10.30;99.90;;;;;;5077240;28;38734;-77
2022/05/06 05:39:56;;;;;;;12.63;9.27;;;10.30;99.90;;;;;;5070354;28;37896;-77
2022/05/06 05:42:29;;;;;;;10.50;9.32;;;10.30;99.90;;;;;;5073656;28;37107;-77
2022/05/06 05:50:27;;;;;;;13.00;9.55;;;10.70;99.90;;;;;;5080474;27;39263;-77
2022/05/06 05:52:54;;;;;;;11.30;9.88;;;10.60;99.90;;;;;;5082224;27;37914;-77
2022/05/06 05:55:21;;;;;;;9.35;8.45;;;10.70;99.90;;;;;;5075149;28;38252;-77
2022/05/06 05:57:47;;;;;;;8.55;7.68;;;10.70;99.90;;;;;;5083813;27;37929;-77
2022/05/06 06:00:14;;;;;;;7.45;6.72;;;10.80;99.90;;;;;;5082416;27;37573;-77
2022/05/06 06:02:40;;;;;;;7.53;6.78;;;10.80;99.90;;;;;;5073124;28;37276;-77
2022/05/06 06:05:06;;;;;;;7.22;6.47;;;10.90;99.90;;;;;;5071689;28;38013;-77
2022/05/06 06:07:32;;;;;;;6.43;5.82;;;11.00;99.90;;;;;;5069243;28;36185;-77
2022/05/06 06:09:59;;;;;;;7.65;6.85;;;11.10;99.90;;;;;;5068933;27;38711;-77
2022/05/06 06:12:25;;;;;;;11.00;9.27;;;11.30;99.90;;;;;;5069427;28;38984;-77
2022/05/06 06:14:55;;;;;;;15.25;12.60;;;11.40;99.90;;;;;;5075412;28;39466;-77
2022/05/06 06:17:23;;;;;;;21.35;14.90;;;11.40;99.90;;;;;;5073129;28;37246;-77
2022/05/06 06:19:49;;;;;;;24.63;17.33;;;11.50;99.90;;;;;;5074117;28;37298;-77
2022/05/06 06:22:15;;;;;;;30.10;21.45;;;11.60;99.90;;;;;;5078446;27;40009;-76
2022/05/06 06:24:41;;;;;;;32.70;22.00;;;11.80;99.90;;;;;;5075086;27;39692;-78
2022/05/06 06:27:08;;;;;;;29.02;21.65;;;11.80;99.90;;;;;;5076128;27;38577;-76
2022/05/06 06:29:35;;;;;;;23.83;19.13;;;11.80;99.90;;;;;;5071510;27;39971;-77
2022/05/06 06:32:02;;;;;;;19.65;15.80;;;11.90;99.90;;;;;;5064184;28;40008;-77
2022/05/06 06:34:28;;;;;;;21.48;17.50;;;12.20;99.90;;;;;;5077725;28;47458;-77
2022/05/06 06:36:54;;;;;;;24.73;18.60;;;12.20;99.90;;;;;;5077936;28;39181;-78
2022/05/06 06:39:20;;;;;;;20.73;14.88;;;12.10;99.90;;;;;;5064629;28;39589;-77
2022/05/06 06:41:47;;;;;;;20.67;14.82;;;12.20;99.90;;;;;;5048049;28;38640;-79
2022/05/06 06:44:13;;;;;;;16.35;12.93;;;12.30;99.90;;;;;;5087066;28;38841;-77
2022/05/06 06:46:39;;;;;;;17.50;12.30;;;12.40;99.90;;;;;;5047398;28;37805;-78
2022/05/06 06:49:05;;;;;;;16.98;13.02;;;12.50;99.90;;;;;;5050696;28;37612;-78
2022/05/06 06:51:31;;;;;;;19.38;14.35;;;12.50;99.90;;;;;;5060165;28;39385;-78
2022/05/06 06:53:58;;;;;;;20.77;14.57;;;12.70;99.90;;;;;;5056554;28;39263;-81
2022/05/06 06:56:24;;;;;;;18.67;13.77;;;12.80;99.90;;;;;;5090920;27;37133;-81
2022/05/06 06:58:50;;;;;;;17.08;12.55;;;12.90;99.90;;;;;;5099862;28;38705;-81
2022/05/06 07:01:16;;;;;;;19.90;12.20;;;12.70;99.90;;;;;;5102933;28;38767;-81
2022/05/06 07:03:42;;;;;;;17.85;12.38;;;12.40;99.90;;;;;;5093938;27;36634;-81
2022/05/06 07:11:53;;;;;;;20.40;13.60;;;12.70;99.90;;;;;;5083349;27;49231;-80
2022/05/06 07:14:21;;;;;;;18.15;12.23;;;13.20;99.90;;;;;;5077388;27;38963;-80
2022/05/06 07:16:51;;;;;;;17.60;11.98;;;13.30;99.90;;;;;;5054057;28;37837;-80
2022/05/06 07:19:17;;;;;;;16.92;11.43;;;13.40;99.90;;;;;;5047056;28;39903;-80
2022/05/06 07:21:44;;;;;;;15.60;11.63;;;13.80;99.90;;;;;;5080402;28;38818;-80
2022/05/06 07:24:10;;;;;;;18.25;13.20;;;13.60;99.90;;;;;;5045065;28;39852;-79
2022/05/06 07:26:36;;;;;;;14.90;11.68;;;13.60;99.90;;;;;;5094523;27;38376;-79
2022/05/06 07:29:02;;;;;;;15.85;11.98;;;14.00;99.90;;;;;;5074989;27;38514;-79
2022/05/06 07:31:28;;;;;;;16.73;12.77;;;14.30;99.90;;;;;;5058824;27;48633;-79
2022/05/06 07:33:55;;;;;;;20.67;13.57;;;13.90;99.90;;;;;;5056614;28;39913;-79
2022/05/06 07:36:23;;;;;;;17.63;13.57;;;14.30;99.90;;;;;;5061144;27;37216;-80
2022/05/06 07:38:50;;;;;;;18.52;13.65;;;14.20;99.90;;;;;;5068354;27;39962;-79
2022/05/06 07:41:16;;;;;;;15.05;12.52;;;14.10;99.90;;;;;;5077303;27;38880;-80
2022/05/06 07:43:42;;;;;;;15.90;12.32;;;14.50;99.90;;;;;;5077670;27;39009;-79
2022/05/06 07:46:12;;;;;;;14.80;11.82;;;14.80;99.90;;;;;;5076338;27;37128;-77
2022/05/06 07:48:39;;;;;;;14.13;11.32;;;15.20;99.90;;;;;;5076201;27;38584;-77
2022/05/06 07:51:05;;;;;;;16.88;11.35;;;15.30;99.90;;;;;;5079530;27;39142;-78
2022/05/06 07:53:32;;;;;;;14.35;11.15;;;15.80;99.90;;;;;;5072438;28;37700;-78
2022/05/06 07:55:58;;;;;;;14.13;11.38;;;15.20;99.90;;;;;;5066331;28;36719;-77
2022/05/06 07:58:24;;;;;;;15.57;12.15;;;15.50;99.90;;;;;;5079681;28;38681;-79
2022/05/06 08:00:50;;;;;;;17.30;13.00;;;15.30;99.90;;;;;;5073554;28;37537;-79
2022/05/06 08:06:03;;;;;;;18.10;12.80;;;15.50;99.90;;;;;;5084961;28;36949;-77
2022/05/06 08:08:30;;;;;;;16.98;12.38;;;16.00;99.90;;;;;;5077220;28;39347;-79
2022/05/06 08:10:57;;;;;;;17.10;12.43;;;15.70;99.90;;;;;;5081160;28;39218;-78
2022/05/06 08:13:23;;;;;;;14.80;11.02;;;15.70;99.90;;;;;;5074550;28;38974;-78
2022/05/06 08:15:51;;;;;;;15.20;11.27;;;16.30;99.90;;;;;;5072916;28;36757;-78
2022/05/06 08:18:20;;;;;;;17.88;12.27;;;16.90;99.90;;;;;;5077441;28;38886;-79
2022/05/06 08:20:47;;;;;;;14.55;10.77;;;16.80;99.90;;;;;;5074981;28;41149;-79
2022/05/06 08:23:13;;;;;;;14.85;11.02;;;17.10;99.90;;;;;;5067632;28;39642;-79
2022/05/06 08:25:40;;;;;;;17.88;12.90;;;17.40;99.90;;;;;;5080152;28;39206;-79
2022/05/06 08:28:07;;;;;;;16.70;12.20;;;17.10;99.90;;;;;;5077630;28;37531;-79
2022/05/06 08:30:33;;;;;;;18.55;11.50;;;16.90;99.90;;;;;;5068007;28;38989;-78
2022/05/06 08:32:59;;;;;;;15.13;11.32;;;16.80;99.90;;;;;;5070255;28;38768;-81
2022/05/06 08:35:25;;;;;;;15.25;10.77;;;16.50;99.90;;;;;;5070075;27;38023;-80
2022/05/06 08:37:51;;;;;;;17.80;11.38;;;16.90;99.90;;;;;;5078109;28;38868;-81
2022/05/06 08:40:23;;;;;;;13.77;10.77;;;17.70;99.90;;;;;;5071445;27;37443;-80
2022/05/06 08:42:49;;;;;;;15.20;11.35;;;17.90;99.90;;;;;;5051345;28;39164;-79
2022/05/06 08:50:55;;;;;;;13.85;10.98;;;17.50;99.90;;;;;;5043552;28;39040;-80
2022/05/06 08:53:26;;;;;;;15.02;10.55;;;17.90;99.90;;;;;;5051191;28;38716;-79
2022/05/06 08:55:57;;;;;;;14.18;10.13;;;17.70;99.90;;;;;;5054008;28;37480;-78
2022/05/06 08:58:27;;;;;;;16.95;11.65;;;18.30;99.90;;;;;;5049877;28;40946;-79
2022/05/06 09:01:05;;;;;;;16.42;11.65;;;18.80;99.90;;;;;;5044490;28;38102;-78
2022/05/06 09:03:31;;;;;;;13.18;11.00;;;18.70;99.90;;;;;;5078524;27;47721;-80
2022/05/06 09:06:01;;;;;;;15.35;11.55;;;18.20;99.90;;;;;;5051360;28;36828;-78
2022/05/06 09:08:43;;;;;;;14.98;10.88;;;18.50;99.90;;;;;;5106764;27;46976;-78
2022/05/06 09:11:13;;;;;;;14.68;11.48;;;19.10;99.90;;;;;;5051734;28;38831;-78
2022/05/06 09:13:55;;;;;;;14.30;11.95;;;19.50;99.90;;;;;;5064484;28;38122;-80
2022/05/06 09:16:39;;;;;;;14.00;11.07;;;19.30;99.90;;;;;;5082361;28;36876;-80
2022/05/06 09:19:19;;;;;;;15.10;11.70;;;19.50;99.90;;;;;;5074917;27;38497;-79
2022/05/06 09:22:05;;;;;;;17.30;11.75;;;19.20;99.90;;;;;;5085244;28;37232;-80
2022/05/06 09:24:37;;;;;;;14.50;12.10;;;19.60;99.90;;;;;;5071038;28;47460;-79
2022/05/06 09:27:15;;;;;;;15.05;12.30;;;19.80;99.90;;;;;;5083494;27;39167;-79
2022/05/06 09:29:46;;;;;;;16.15;11.48;;;20.10;99.90;;;;;;5075145;27;39150;-81
2022/05/06 09:32:29;;;;;;;14.15;12.50;;;19.80;99.90;;;;;;5082967;27;37806;-82
2022/05/06 09:35:10;;;;;;;14.20;12.70;;;19.00;99.90;;;;;;5082954;28;38795;-81
2022/05/06 09:37:41;;;;;;;15.68;12.95;;;18.90;99.90;;;;;;5085313;27;48915;-81
2022/05/06 09:40:11;;;;;;;15.07;12.63;;;18.70;99.90;;;;;;5069712;28;37981;-80
2022/05/06 09:42:45;;;;;;;14.98;13.15;;;19.20;99.90;;;;;;5097604;28;37887;-79
2022/05/06 09:45:13;;;;;;;15.15;12.43;;;18.80;99.90;;;;;;5075745;28;38096;-80
2022/05/06 09:47:40;;;;;;;16.13;13.07;;;18.90;99.90;;;;;;5091556;28;37773;-80
2022/05/06 09:50:08;;;;;;;14.88;12.18;;;18.80;99.90;;;;;;5070433;28;38865;-81
2022/05/06 09:52:34;;;;;;;14.65;12.00;;;19.10;99.90;;;;;;5079785;27;38921;-79
2022/05/06 09:55:02;;;;;;;13.15;11.77;;;19.80;99.90;;;;;;5078631;27;37940;-81
2022/05/06 09:57:29;;;;;;;12.88;10.32;;;20.40;99.90;;;;;;5077611;28;47565;-79
2022/05/06 09:59:55;;;;;;;11.60;10.05;;;20.80;99.90;;;;;;5073475;28;38775;-79
2022/05/06 10:02:21;;;;;;;13.85;11.88;;;21.40;99.90;;;;;;5068344;28;38761;-79
2022/05/06 10:04:50;;;;;;;11.90;9.90;;;21.70;99.90;;;;;;5079871;28;37151;-77
2022/05/06 10:07:20;;;;;;;15.20;9.90;;;21.80;99.90;;;;;;5082227;27;37504;-77
2022/05/06 10:09:46;;;;;;;10.30;9.27;;;22.00;99.90;;;;;;5076330;28;38977;-78
2022/05/06 10:12:16;;;;;;;11.52;9.45;;;22.20;99.90;;;;;;5079691;28;38787;-78
2022/05/06 10:14:44;;;;;;;10.45;9.43;;;22.10;99.90;;;;;;5075936;27;38240;-79
2022/05/06 10:17:10;;;;;;;10.20;9.02;;;22.30;99.90;;;;;;5073668;27;37803;-78
2022/05/06 10:19:36;;;;;;;12.43;10.25;;;22.50;99.90;;;;;;5084450;27;38764;-78
2022/05/06 10:22:05;;;;;;;11.52;10.32;;;22.60;99.90;;;;;;5076952;28;37404;-79
2022/05/06 10:24:41;;;;;;;10.60;9.50;;;22.40;99.90;;;;;;5080426;28;39290;-80
2022/05/06 10:33:20;;;;;;;12.38;10.70;;;22.60;99.90;;;;;;5084522;27;39462;-78
2022/05/06 10:35:47;;;;;;;10.38;8.38;;;22.60;99.90;;;;;;5084416;28;37445;-78
2022/05/06 10:38:29;;;;;;;10.38;9.07;;;22.60;99.90;;;;;;5073810;28;38019;-82
2022/05/06 10:41:11;;;;;;;13.43;8.30;;;22.60;99.90;;;;;;5081961;28;37559;-79
2022/05/06 10:43:43;;;;;;;12.02;8.27;;;22.20;99.90;;;;;;5073009;28;49126;-79
2022/05/06 10:46:09;;;;;;;9.85;7.80;;;22.60;99.90;;;;;;5083624;27;38799;-79
2022/05/06 10:48:35;;;;;;;13.10;9.23;;;23.00;99.90;;;;;;5082738;28;37043;-79
2022/05/06 10:51:24;;;;;;;11.60;9.18;;;23.30;99.90;;;;;;5076314;28;37856;-79
2022/05/06 10:53:51;;;;;;;12.23;9.20;;;23.10;99.90;;;;;;5079259;28;47356;-79
2022/05/06 10:56:21;;;;;;;9.82;8.70;;;23.20;99.90;;;;;;5081940;27;39101;-79
2022/05/06 10:58:56;;;;;;;9.75;8.75;;;23.40;99.90;;;;;;5073648;28;37296;-81
2022/05/06 11:01:27;;;;;;;11.82;8.90;;;23.50;99.90;;;;;;5073715;27;39230;-81
2022/05/06 11:03:54;;;;;;;9.57;8.52;;;23.80;99.90;;;;;;5067456;28;38818;-81
2022/05/06 11:06:24;;;;;;;12.05;8.80;;;24.00;99.90;;;;;;5076047;28;38035;-81
2022/05/06 11:08:50;;;;;;;10.65;8.13;;;24.40;99.90;;;;;;5097723;27;38235;-81
2022/05/06 11:11:20;;;;;;;9.93;8.20;;;24.40;99.90;;;;;;5073409;28;39936;-81
2022/05/06 11:13:52;;;;;;;10.68;8.95;;;24.20;99.90;;;;;;5069414;28;37771;-81
2022/05/06 11:16:22;;;;;;;12.30;9.25;;;24.20;99.90;;;;;;5063927;28;37902;-80
2022/05/06 11:18:52;;;;;;;11.85;8.48;;;24.30;99.90;;;;;;5064610;28;37463;-80
2022/05/06 11:21:31;;;;;;;13.68;9.20;;;24.40;99.90;;;;;;5056827;28;37524;-80
2022/05/06 11:23:57;;;;;;;11.32;9.10;;;23.90;99.90;;;;;;5071341;28;37430;-80
2022/05/06 11:26:27;;;;;;;10.85;9.65;;;23.60;99.90;;;;;;5081182;28;39751;-80
2022/05/06 11:29:02;;;;;;;9.57;7.95;;;23.90;99.90;;;;;;5056100;28;38764;-80
2022/05/06 11:31:28;;;;;;;13.30;10.43;;;24.40;99.90;;;;;;5067120;27;48749;-82
2022/05/06 11:34:01;;;;;;;10.30;9.25;;;24.10;99.90;;;;;;5075231;28;38921;-80
2022/05/06 11:36:27;;;;;;;10.60;9.60;;;23.40;99.90;;;;;;5069855;28;39825;-80
2022/05/06 11:38:53;;;;;;;9.68;8.50;;;23.60;99.90;;;;;;5076618;28;36551;-80
2022/05/06 11:41:20;;;;;;;10.93;9.50;;;23.80;99.90;;;;;;5072956;28;39869;-82
2022/05/06 11:43:47;;;;;;;11.05;9.60;;;24.30;99.90;;;;;;5081887;27;38888;-81
2022/05/06 11:49:04;;;;;;;9.80;7.65;;;23.00;99.90;;;;;;5073244;28;37871;-80
2022/05/06 11:51:42;;;;;;;8.80;7.93;;;23.10;99.90;;;;;;5082748;28;37621;-79
2022/05/06 11:54:14;;;;;;;8.43;6.90;;;23.80;99.90;;;;;;5070989;27;39056;-80
2022/05/06 11:56:41;;;;;;;8.52;7.40;;;24.40;99.90;;;;;;5066723;28;37774;-80
2022/05/06 11:59:07;;;;;;;10.98;7.95;;;24.90;99.90;;;;;;5079015;27;37066;-81
2022/05/06 12:01:34;;;;;;;9.07;8.07;;;24.50;99.90;;;;;;5083530;28;37606;-82
2022/05/06 12:04:03;;;;;;;9.45;7.50;;;24.50;99.90;;;;;;5068162;28;39766;-80
2022/05/06 12:06:31;;;;;;;7.13;6.38;;;24.30;99.90;;;;;;5069501;28;47563;-81
2022/05/06 12:09:10;;;;;;;11.18;8.75;;;24.20;99.90;;;;;;5067541;28;36338;-81
2022/05/06 12:11:38;;;;;;;11.30;8.23;;;23.90;99.90;;;;;;5076849;27;49862;-81
2022/05/06 12:14:06;;;;;;;9.45;7.32;;;23.50;99.90;;;;;;5080267;28;38354;-81
2022/05/06 12:16:32;;;;;;;7.72;6.88;;;23.80;99.90;;;;;;5061659;28;37697;-81
2022/05/06 12:18:58;;;;;;;9.63;8.50;;;24.30;99.90;;;;;;5075964;28;38224;-77
2022/05/06 12:21:26;;;;;;;11.95;8.48;;;24.60;99.90;;;;;;5071310;28;38741;-82
2022/05/06 12:23:56;;;;;;;9.45;7.45;;;24.40;99.90;;;;;;5076802;27;38542;-81
2022/05/06 12:26:30;;;;;;;10.70;8.20;;;24.70;99.90;;;;;;5074354;28;38975;-82
2022/05/06 12:28:57;;;;;;;9.13;7.45;;;24.80;99.90;;;;;;5078414;28;38265;-81
2022/05/06 12:31:33;;;;;;;7.18;6.05;;;25.10;99.90;;;;;;5079228;28;38373;-82
2022/05/06 12:34:06;;;;;;;8.82;7.20;;;25.30;99.90;;;;;;5069350;28;39136;-82
2022/05/06 12:36:33;;;;;;;7.88;7.13;;;25.40;99.90;;;;;;5078365;28;47713;-80
2022/05/06 12:38:59;;;;;;;8.18;7.32;;;25.00;99.90;;;;;;5058197;28;37504;-80
2022/05/06 12:41:35;;;;;;;9.00;8.10;;;25.10;99.90;;;;;;5075728;28;39635;-81
2022/05/06 12:44:16;;;;;;;6.20;5.60;;;24.90;99.90;;;;;;5075815;27;39328;-81
2022/05/06 12:46:43;;;;;;;9.15;7.53;;;25.40;99.90;;;;;;5077765;28;47093;-82
2022/05/06 12:51:54;;;;;;;9.25;7.10;;;24.70;99.90;;;;;;5073220;28;39193;-81
2022/05/06 12:54:21;;;;;;;9.50;7.40;;;25.20;99.90;;;;;;5074148;28;39213;-81
2022/05/06 12:56:47;;;;;;;9.02;7.60;;;25.30;99.90;;;;;;5078052;28;39363;-81
2022/05/06 12:59:14;;;;;;;9.30;7.63;;;25.10;99.90;;;;;;5067859;27;37163;-81
2022/05/06 13:01:40;;;;;;;8.18;6.60;;;25.20;99.90;;;;;;5084249;28;39567;-81
2022/05/06 13:04:06;;;;;;;7.28;6.60;;;25.40;99.90;;;;;;5073004;27;38815;-81
2022/05/06 13:06:33;;;;;;;7.18;6.20;;;25.50;99.90;;;;;;5068714;28;38410;-81
2022/05/06 13:08:59;;;;;;;10.48;9.40;;;25.70;99.90;;;;;;5072555;28;38379;-82
2022/05/06 13:11:26;;;;;;;11.13;9.98;;;25.90;99.90;;;;;;5069581;28;38983;-80
2022/05/06 13:13:52;;;;;;;10.25;8.20;;;25.20;99.90;;;;;;5079299;28;39056;-81
2022/05/06 13:16:18;;;;;;;9.38;8.38;;;24.40;99.90;;;;;;5080494;27;39095;-80
2022/05/06 13:18:44;;;;;;;12.65;7.63;;;24.00;99.90;;;;;;5076061;28;37074;-81